Time;durP1;ratioP1;P1;durP2;ratioP2;P2;SDS_P1;SDS_P2;PMS_P1;PMS_P2;Temp;Humidity;BMP_temperature;BMP_pressure;BME280_temperature;BME280_humidity;BME280_pressure;Samples;Min_cycle;Max_cycle;Signal;HPM_P1;HPM_P2
2023/10/04 00:01:06;;;;;;;4.63;2.10;;;13.70;99.90;;;;;;5028829;28;20206;-57
2023/10/04 00:03:32;;;;;;;4.30;2.10;;;13.70;99.90;;;;;;5028661;28;20213;-57
2023/10/04 00:05:57;;;;;;;2.53;2.13;;;13.60;99.90;;;;;;5029166;28;20254;-57
2023/10/04 00:08:25;;;;;;;4.20;2.47;;;13.50;99.90;;;;;;5033132;28;20723;-57
2023/10/04 00:10:51;;;;;;;8.60;2.47;;;13.60;99.90;;;;;;5033534;28;20206;-62
2023/10/04 00:13:16;;;;;;;8.27;2.17;;;13.60;99.90;;;;;;5034887;28;20197;-58
2023/10/04 00:15:42;;;;;;;8.47;1.87;;;13.60;99.90;;;;;;5027101;28;20214;-58
2023/10/04 00:18:09;;;;;;;4.27;2.00;;;13.30;99.90;;;;;;5031828;28;20296;-57
2023/10/04 00:20:35;;;;;;;2.77;1.57;;;13.30;99.90;;;;;;5029649;28;20217;-57
2023/10/04 00:23:04;;;;;;;5.30;2.23;;;13.40;99.90;;;;;;5028904;28;20191;-58
2023/10/04 00:25:30;;;;;;;5.33;2.13;;;13.50;99.90;;;;;;5026946;28;20294;-57
2023/10/04 00:27:56;;;;;;;3.37;2.40;;;13.60;99.90;;;;;;5032834;28;20282;-57
2023/10/04 00:30:22;;;;;;;4.03;2.17;;;13.50;99.90;;;;;;5033483;28;20199;-57
2023/10/04 00:32:48;;;;;;;6.00;2.87;;;13.50;99.90;;;;;;5027775;28;20202;-57
2023/10/04 00:35:21;;;;;;;6.67;2.30;;;13.40;99.90;;;;;;5024531;28;20198;-57
2023/10/04 00:37:55;;;;;;;4.47;2.13;;;13.40;99.90;;;;;;5030306;28;20716;-58
2023/10/04 00:40:24;;;;;;;7.03;2.30;;;13.30;99.90;;;;;;5026772;28;20274;-56
2023/10/04 00:42:50;;;;;;;5.50;2.53;;;13.40;99.90;;;;;;5028347;28;20221;-56
2023/10/04 00:45:16;;;;;;;6.80;2.40;;;13.50;99.90;;;;;;5025460;28;20382;-57
2023/10/04 00:47:46;;;;;;;9.07;2.93;;;13.60;99.90;;;;;;5027294;28;20223;-57
2023/10/04 00:50:16;;;;;;;6.60;2.20;;;13.50;99.90;;;;;;5029803;28;20306;-57
2023/10/04 00:52:49;;;;;;;3.60;2.30;;;13.60;99.90;;;;;;5030068;28;20773;-57
2023/10/04 00:55:19;;;;;;;5.27;1.93;;;13.60;99.90;;;;;;5028146;28;20206;-57
2023/10/04 00:57:48;;;;;;;5.73;2.23;;;13.40;99.90;;;;;;5028217;28;20203;-57
2023/10/04 01:00:14;;;;;;;4.53;2.33;;;13.30;99.90;;;;;;5031051;28;20300;-58
2023/10/04 01:02:41;;;;;;;8.30;2.20;;;13.30;99.90;;;;;;5027198;28;20210;-60
2023/10/04 01:05:07;;;;;;;6.67;2.13;;;13.40;99.90;;;;;;5029207;28;20288;-58
2023/10/04 01:07:35;;;;;;;9.57;2.90;;;13.30;99.90;;;;;;5027495;28;20919;-54
2023/10/04 01:10:00;;;;;;;5.43;2.13;;;13.40;99.90;;;;;;5028510;28;20199;-55
2023/10/04 01:12:26;;;;;;;5.93;1.90;;;13.40;99.90;;;;;;5024982;28;20256;-55
2023/10/04 01:14:53;;;;;;;5.37;2.27;;;13.30;99.90;;;;;;5024217;28;20459;-55
2023/10/04 01:17:20;;;;;;;5.00;2.30;;;13.30;99.90;;;;;;5030637;28;20600;-55
2023/10/04 01:19:45;;;;;;;4.13;1.90;;;13.40;99.90;;;;;;5024045;28;20201;-55
2023/10/04 01:22:11;;;;;;;3.60;2.07;;;13.30;99.90;;;;;;5023499;28;20213;-56
2023/10/04 01:24:41;;;;;;;9.33;2.30;;;13.30;99.90;;;;;;5027979;28;20561;-57
2023/10/04 01:27:09;;;;;;;2.87;2.20;;;13.40;99.90;;;;;;5027060;28;20695;-56
2023/10/04 01:29:38;;;;;;;6.23;2.17;;;13.30;99.90;;;;;;5029225;28;20618;-55
2023/10/04 01:32:05;;;;;;;5.93;2.43;;;13.30;99.90;;;;;;5028572;28;20226;-55
2023/10/04 01:34:30;;;;;;;6.53;2.30;;;13.20;99.90;;;;;;5026643;28;20199;-56
2023/10/04 01:36:56;;;;;;;10.43;2.50;;;13.20;99.90;;;;;;5030738;28;20208;-56
2023/10/04 01:39:22;;;;;;;5.77;2.17;;;13.30;99.90;;;;;;5028901;28;20596;-55
2023/10/04 01:41:49;;;;;;;4.37;2.10;;;13.30;99.90;;;;;;5026208;28;20207;-55
2023/10/04 01:44:15;;;;;;;12.63;3.00;;;13.10;99.90;;;;;;5025561;28;20226;-55
2023/10/04 01:46:42;;;;;;;4.17;1.80;;;13.00;99.90;;;;;;5028299;28;20213;-55
2023/10/04 01:49:07;;;;;;;4.17;2.50;;;13.10;99.90;;;;;;5019431;28;20202;-55
2023/10/04 01:51:34;;;;;;;5.77;3.70;;;13.20;99.90;;;;;;5024916;28;20704;-55
2023/10/04 01:54:00;;;;;;;4.53;2.70;;;13.20;99.90;;;;;;5025851;28;20610;-55
2023/10/04 01:56:26;;;;;;;4.20;2.20;;;13.10;99.90;;;;;;5021065;28;20194;-56
2023/10/04 01:58:53;;;;;;;3.90;2.70;;;13.10;99.90;;;;;;5025016;28;20214;-56
2023/10/04 02:01:19;;;;;;;4.87;2.30;;;13.00;99.90;;;;;;5026060;28;20215;-56
2023/10/04 02:03:44;;;;;;;5.03;1.80;;;13.00;99.90;;;;;;5025158;28;20195;-56
2023/10/04 02:06:10;;;;;;;7.37;2.27;;;13.00;99.90;;;;;;5026050;28;20247;-56
2023/10/04 02:08:36;;;;;;;6.37;2.53;;;13.00;99.90;;;;;;5028779;28;20222;-55
2023/10/04 02:11:04;;;;;;;3.63;2.10;;;13.00;99.90;;;;;;5030293;28;20195;-56
2023/10/04 02:13:32;;;;;;;5.27;2.47;;;12.90;99.90;;;;;;5026820;28;20281;-56
2023/10/04 02:15:59;;;;;;;5.03;2.47;;;12.90;99.90;;;;;;5027007;28;20565;-56
2023/10/04 02:18:24;;;;;;;8.27;3.13;;;12.90;99.90;;;;;;5030700;28;20247;-56
2023/10/04 02:20:53;;;;;;;2.63;2.00;;;12.90;99.90;;;;;;5035884;28;20842;-56
2023/10/04 02:23:19;;;;;;;7.33;2.53;;;12.80;99.90;;;;;;5037708;28;20197;-55
2023/10/04 02:25:45;;;;;;;6.17;1.97;;;12.90;99.90;;;;;;5029763;28;20278;-55
2023/10/04 02:28:11;;;;;;;7.77;2.33;;;12.90;99.90;;;;;;5025786;28;20199;-56
2023/10/04 02:30:38;;;;;;;6.97;2.27;;;12.90;99.90;;;;;;5028812;28;20210;-55
2023/10/04 02:33:09;;;;;;;2.87;2.37;;;12.80;99.90;;;;;;5034839;28;20676;-55
2023/10/04 02:35:35;;;;;;;6.20;2.87;;;12.90;99.90;;;;;;5033887;28;20202;-56
2023/10/04 02:38:14;;;;;;;7.30;3.27;;;12.90;99.90;;;;;;5030940;28;20199;-56
2023/10/04 02:40:43;;;;;;;8.10;3.60;;;13.00;99.90;;;;;;5036461;28;20216;-55
2023/10/04 02:43:09;;;;;;;6.20;3.10;;;13.10;99.90;;;;;;5029765;28;20195;-55
2023/10/04 02:45:36;;;;;;;6.13;2.60;;;13.00;99.90;;;;;;5030045;28;20233;-61
2023/10/04 02:48:04;;;;;;;5.23;3.37;;;12.90;99.90;;;;;;5030109;28;20185;-60
2023/10/04 02:50:29;;;;;;;2.83;2.53;;;12.90;99.90;;;;;;5031839;28;20198;-62
2023/10/04 02:52:56;;;;;;;5.50;3.53;;;13.00;99.90;;;;;;5028896;28;20222;-55
2023/10/04 02:55:22;;;;;;;9.03;2.70;;;13.00;99.90;;;;;;5030684;28;20187;-55
2023/10/04 02:57:52;;;;;;;5.03;2.80;;;13.10;99.90;;;;;;5032713;28;20206;-55
2023/10/04 03:00:19;;;;;;;5.17;2.97;;;13.00;99.90;;;;;;5029147;28;20736;-55
2023/10/04 03:02:50;;;;;;;8.60;3.47;;;13.00;99.90;;;;;;5032353;28;20883;-54
2023/10/04 03:05:19;;;;;;;6.97;3.60;;;13.00;99.90;;;;;;5030526;28;20270;-55
2023/10/04 03:07:47;;;;;;;7.97;3.20;;;13.00;99.90;;;;;;5032567;28;20587;-55
2023/10/04 03:10:14;;;;;;;4.93;3.20;;;13.00;99.90;;;;;;5027347;28;20334;-54
2023/10/04 03:12:41;;;;;;;5.33;3.40;;;13.00;99.90;;;;;;5030775;28;20725;-55
2023/10/04 03:15:07;;;;;;;8.40;3.33;;;12.90;99.90;;;;;;5028310;28;20209;-56
2023/10/04 03:17:33;;;;;;;8.93;3.30;;;12.90;99.90;;;;;;5031377;28;20728;-55
2023/10/04 03:20:00;;;;;;;5.57;3.30;;;13.00;99.90;;;;;;5027670;28;20210;-55
2023/10/04 03:22:26;;;;;;;7.40;3.50;;;12.90;99.90;;;;;;5033026;28;20195;-55
2023/10/04 03:24:51;;;;;;;8.57;4.00;;;12.90;99.90;;;;;;5027517;28;20203;-55
2023/10/04 03:27:21;;;;;;;8.10;3.53;;;12.70;99.90;;;;;;5028881;28;20209;-55
2023/10/04 03:29:52;;;;;;;4.87;3.37;;;12.70;99.90;;;;;;5026344;28;20202;-56
2023/10/04 03:32:18;;;;;;;6.13;3.80;;;12.70;99.90;;;;;;5032006;28;20259;-55
2023/10/04 03:34:44;;;;;;;8.57;3.83;;;12.90;99.90;;;;;;5028627;28;20971;-56
2023/10/04 03:37:13;;;;;;;5.37;4.33;;;12.90;99.90;;;;;;5031263;28;20313;-56
2023/10/04 03:39:39;;;;;;;6.17;4.17;;;12.90;99.90;;;;;;5029787;28;20925;-56
2023/10/04 03:42:05;;;;;;;8.97;4.27;;;13.00;99.90;;;;;;5032560;28;20253;-55
2023/10/04 03:44:31;;;;;;;8.17;4.90;;;12.90;99.90;;;;;;5027920;28;20218;-56
2023/10/04 03:47:00;;;;;;;5.37;3.40;;;12.90;99.90;;;;;;5029633;28;20754;-55
2023/10/04 03:49:26;;;;;;;9.37;5.40;;;13.00;99.90;;;;;;5027239;28;20198;-55
2023/10/04 03:51:53;;;;;;;6.27;3.57;;;12.90;99.90;;;;;;5025253;28;20213;-55
2023/10/04 03:54:19;;;;;;;6.90;4.23;;;12.90;99.90;;;;;;5026262;28;20699;-56
2023/10/04 03:56:45;;;;;;;8.40;3.90;;;12.80;99.90;;;;;;5028373;28;20630;-56
2023/10/04 03:59:11;;;;;;;4.90;3.53;;;12.70;99.90;;;;;;5030264;28;20206;-57
2023/10/04 04:01:37;;;;;;;7.20;4.57;;;12.90;99.90;;;;;;5028181;28;20234;-55
2023/10/04 04:04:04;;;;;;;5.47;4.37;;;13.00;99.90;;;;;;5026443;28;20204;-55
2023/10/04 04:06:30;;;;;;;7.00;5.27;;;12.90;99.90;;;;;;5028609;28;20218;-55
2023/10/04 04:08:58;;;;;;;11.03;3.83;;;12.90;99.90;;;;;;5029643;28;20197;-54
2023/10/04 04:11:24;;;;;;;8.17;3.93;;;13.00;99.90;;;;;;5031288;28;20210;-63
2023/10/04 04:13:49;;;;;;;4.43;3.77;;;13.00;99.90;;;;;;5029010;28;20217;-61
2023/10/04 04:16:19;;;;;;;6.07;4.00;;;12.90;99.90;;;;;;5031707;28;20194;-61
2023/10/04 04:18:47;;;;;;;7.77;3.73;;;13.00;99.90;;;;;;5030969;28;20202;-56
2023/10/04 04:21:13;;;;;;;7.33;4.87;;;13.00;99.90;;;;;;5032208;28;20477;-55
2023/10/04 04:23:38;;;;;;;8.40;3.97;;;13.10;99.90;;;;;;5030089;28;20320;-56
2023/10/04 04:26:07;;;;;;;4.43;4.03;;;13.00;99.90;;;;;;5032717;28;20230;-56
2023/10/04 04:28:36;;;;;;;5.93;3.87;;;13.00;99.90;;;;;;5032956;28;20206;-55
2023/10/04 04:31:09;;;;;;;8.77;3.87;;;13.00;99.90;;;;;;5032754;28;20279;-55
2023/10/04 04:33:34;;;;;;;6.80;4.57;;;13.00;99.90;;;;;;5030188;28;20222;-56
2023/10/04 04:36:09;;;;;;;7.07;4.33;;;13.00;99.90;;;;;;5018397;28;20225;-55
2023/10/04 04:38:38;;;;;;;5.80;4.13;;;13.00;99.90;;;;;;5024849;28;20205;-56
2023/10/04 04:41:11;;;;;;;8.17;4.03;;;12.90;99.90;;;;;;5029422;28;20209;-56
2023/10/04 04:43:37;;;;;;;8.80;4.33;;;13.00;99.90;;;;;;5027674;28;20221;-57
2023/10/04 04:46:09;;;;;;;7.13;3.90;;;13.10;99.90;;;;;;5030463;28;20200;-56
2023/10/04 04:48:38;;;;;;;7.53;3.80;;;12.90;99.90;;;;;;5028479;28;20256;-55
2023/10/04 04:51:25;;;;;;;5.63;3.40;;;12.80;99.90;;;;;;5028669;28;20201;-55
2023/10/04 04:53:50;;;;;;;7.20;3.60;;;12.90;99.90;;;;;;5030979;28;20577;-55
2023/10/04 04:56:17;;;;;;;8.73;4.07;;;12.90;99.90;;;;;;5030041;28;20678;-57
2023/10/04 04:58:47;;;;;;;4.90;3.93;;;12.80;99.90;;;;;;5029438;28;20205;-56
2023/10/04 05:01:12;;;;;;;10.03;3.27;;;12.80;99.90;;;;;;5026040;28;20222;-56
2023/10/04 05:03:42;;;;;;;7.23;4.07;;;12.80;99.90;;;;;;5027144;28;20204;-55
2023/10/04 05:06:21;;;;;;;8.37;3.77;;;12.80;99.90;;;;;;5028738;28;20190;-55
2023/10/04 05:08:46;;;;;;;5.27;3.53;;;12.80;99.90;;;;;;5030946;28;20958;-55
2023/10/04 05:11:12;;;;;;;8.53;4.37;;;12.90;99.90;;;;;;5024006;28;20201;-55
2023/10/04 05:13:37;;;;;;;9.53;3.43;;;13.00;99.90;;;;;;5028502;28;20205;-55
2023/10/04 05:16:07;;;;;;;9.57;3.97;;;12.90;99.90;;;;;;5030310;28;20570;-55
2023/10/04 05:18:32;;;;;;;3.90;2.93;;;12.90;99.90;;;;;;5031387;28;20198;-55
2023/10/04 05:21:00;;;;;;;8.97;3.53;;;12.90;99.90;;;;;;5027764;28;20300;-54
2023/10/04 05:23:29;;;;;;;6.30;3.27;;;12.80;99.90;;;;;;5028986;28;20306;-54
2023/10/04 05:25:55;;;;;;;9.30;3.50;;;12.80;99.90;;;;;;5029640;28;20201;-54
2023/10/04 05:28:24;;;;;;;6.07;3.20;;;12.80;99.90;;;;;;5025079;28;20822;-54
2023/10/04 05:30:51;;;;;;;10.60;3.87;;;12.80;99.90;;;;;;5025519;28;20207;-54
2023/10/04 05:33:18;;;;;;;3.57;3.27;;;12.80;99.90;;;;;;5026395;28;20206;-55
2023/10/04 05:35:45;;;;;;;4.27;3.00;;;12.90;99.90;;;;;;5024327;28;20198;-55
2023/10/04 05:38:16;;;;;;;5.80;3.33;;;12.80;99.90;;;;;;5029093;28;20195;-55
2023/10/04 05:40:43;;;;;;;5.43;2.87;;;12.70;99.90;;;;;;5027990;28;20213;-55
2023/10/04 05:43:10;;;;;;;4.67;2.50;;;12.70;99.90;;;;;;5025595;28;20575;-55
2023/10/04 05:45:36;;;;;;;4.33;2.80;;;12.70;99.90;;;;;;5024286;28;20276;-55
2023/10/04 05:48:04;;;;;;;5.13;3.20;;;12.80;99.90;;;;;;5028608;28;20267;-54
2023/10/04 05:50:32;;;;;;;4.77;2.93;;;12.80;99.90;;;;;;5032511;28;20285;-54
2023/10/04 05:53:00;;;;;;;4.70;3.07;;;12.90;99.90;;;;;;5026908;28;20365;-55
2023/10/04 05:55:26;;;;;;;4.83;2.87;;;12.80;99.90;;;;;;5027278;28;20684;-54
2023/10/04 05:57:52;;;;;;;5.40;3.60;;;12.70;99.90;;;;;;5031959;28;20233;-54
2023/10/04 06:00:29;;;;;;;6.17;3.13;;;12.80;99.90;;;;;;5023905;28;20207;-54
2023/10/04 06:03:00;;;;;;;5.13;2.93;;;12.80;99.90;;;;;;5024921;28;20680;-55
2023/10/04 06:05:27;;;;;;;6.37;3.00;;;12.90;99.90;;;;;;5028314;28;20210;-54
2023/10/04 06:07:56;;;;;;;5.97;3.43;;;13.00;99.90;;;;;;5031641;28;20224;-55
2023/10/04 06:10:24;;;;;;;11.83;2.70;;;13.00;99.90;;;;;;5030229;28;20217;-54
2023/10/04 06:12:54;;;;;;;8.00;2.93;;;13.10;99.90;;;;;;5033134;28;20202;-54
2023/10/04 06:15:20;;;;;;;4.60;2.53;;;13.10;99.90;;;;;;5033708;28;20210;-55
2023/10/04 06:17:47;;;;;;;2.43;2.20;;;13.20;99.90;;;;;;5032187;28;20206;-65
2023/10/04 06:20:24;;;;;;;5.57;2.23;;;13.20;99.90;;;;;;5033252;28;21025;-60
2023/10/04 06:22:55;;;;;;;7.47;3.10;;;13.30;99.90;;;;;;5028801;28;20193;-60
2023/10/04 06:25:22;;;;;;;5.70;2.40;;;13.00;99.90;;;;;;5027206;28;20209;-60
2023/10/04 06:27:50;;;;;;;6.37;3.27;;;13.10;99.90;;;;;;5030061;28;20260;-56
2023/10/04 06:30:20;;;;;;;5.63;2.93;;;13.10;99.90;;;;;;5026721;28;20203;-55
2023/10/04 06:32:50;;;;;;;4.33;3.10;;;13.30;99.90;;;;;;5027158;28;20202;-54
2023/10/04 06:35:16;;;;;;;8.97;3.13;;;13.20;99.90;;;;;;5031330;28;20195;-54
2023/10/04 06:37:42;;;;;;;5.57;3.13;;;13.20;99.90;;;;;;5025363;28;20189;-54
2023/10/04 06:40:15;;;;;;;5.60;2.70;;;13.20;99.90;;;;;;5025467;28;20202;-56
2023/10/04 06:42:45;;;;;;;5.50;2.83;;;13.20;99.90;;;;;;5024081;28;20197;-56
2023/10/04 06:45:12;;;;;;;7.03;3.37;;;13.30;99.90;;;;;;5021974;28;20232;-55
2023/10/04 06:47:39;;;;;;;4.63;2.73;;;13.40;99.90;;;;;;5024825;28;20289;-57
2023/10/04 06:50:06;;;;;;;9.97;3.23;;;13.40;99.90;;;;;;5026392;28;20195;-57
2023/10/04 06:52:32;;;;;;;3.03;2.10;;;13.30;99.90;;;;;;5025546;28;20290;-59
2023/10/04 06:54:58;;;;;;;6.90;3.13;;;13.40;99.90;;;;;;5034007;28;20274;-59
2023/10/04 06:57:23;;;;;;;5.27;2.67;;;13.50;99.90;;;;;;5024840;28;20495;-57
2023/10/04 06:59:49;;;;;;;3.87;2.63;;;13.40;99.90;;;;;;5030197;28;20202;-57
2023/10/04 07:02:14;;;;;;;6.73;2.90;;;13.60;99.90;;;;;;5028110;28;20300;-57
2023/10/04 07:04:40;;;;;;;5.73;3.20;;;13.70;99.90;;;;;;5027769;28;20227;-61
2023/10/04 07:07:06;;;;;;;6.40;2.97;;;13.70;99.90;;;;;;5032057;28;20617;-59
2023/10/04 07:09:31;;;;;;;6.07;3.20;;;13.80;99.90;;;;;;5031020;28;20197;-54
2023/10/04 07:11:57;;;;;;;5.20;2.53;;;13.90;99.90;;;;;;5028418;28;20257;-63
2023/10/04 07:14:23;;;;;;;3.83;2.57;;;13.70;99.90;;;;;;5036295;28;20569;-59
2023/10/04 07:16:48;;;;;;;5.20;2.97;;;13.80;99.90;;;;;;5027692;28;20677;-60
2023/10/04 07:19:16;;;;;;;9.93;3.10;;;13.80;99.90;;;;;;5027285;28;20209;-59
2023/10/04 07:21:41;;;;;;;5.27;2.83;;;13.90;99.90;;;;;;5032798;28;20250;-59
2023/10/04 07:24:07;;;;;;;6.33;3.40;;;14.10;99.90;;;;;;5029196;28;20612;-67
2023/10/04 07:26:35;;;;;;;3.53;2.10;;;14.10;99.90;;;;;;5022988;28;20523;-58
2023/10/04 07:29:02;;;;;;;6.67;2.93;;;14.00;99.90;;;;;;5023384;28;20229;-62
2023/10/04 07:31:28;;;;;;;7.53;3.13;;;14.10;99.90;;;;;;5023192;28;20206;-57
2023/10/04 07:33:53;;;;;;;4.03;2.80;;;14.20;99.90;;;;;;5021585;28;20214;-59
2023/10/04 07:36:19;;;;;;;8.57;3.07;;;14.20;99.90;;;;;;5025943;28;20203;-61
2023/10/04 07:38:45;;;;;;;8.47;3.00;;;14.20;99.90;;;;;;5021613;28;20234;-61
2023/10/04 07:41:11;;;;;;;5.87;2.90;;;14.30;99.90;;;;;;5026025;28;20214;-58
2023/10/04 07:43:37;;;;;;;5.37;2.53;;;14.30;99.90;;;;;;5026038;28;20228;-63
2023/10/04 07:46:04;;;;;;;6.03;2.50;;;14.40;99.90;;;;;;5030321;28;20207;-65
2023/10/04 07:48:29;;;;;;;5.87;2.83;;;14.40;99.90;;;;;;5025912;28;20260;-64
2023/10/04 07:50:55;;;;;;;5.50;3.17;;;14.30;99.90;;;;;;5026640;28;20771;-56
2023/10/04 07:53:21;;;;;;;4.87;2.83;;;14.30;99.90;;;;;;5020551;28;20209;-60
2023/10/04 07:55:49;;;;;;;5.93;2.50;;;14.40;99.90;;;;;;5015965;28;20547;-60
2023/10/04 07:58:15;;;;;;;6.30;2.37;;;14.50;99.90;;;;;;5026863;28;20194;-60
2023/10/04 08:00:41;;;;;;;6.70;3.03;;;14.50;99.90;;;;;;5020671;28;20219;-60
2023/10/04 08:03:08;;;;;;;6.67;2.80;;;14.50;99.90;;;;;;5027333;28;20565;-60
2023/10/04 08:05:34;;;;;;;4.17;2.67;;;14.50;99.90;;;;;;5032459;28;20570;-59
2023/10/04 08:08:02;;;;;;;4.50;2.67;;;14.50;99.90;;;;;;5028829;28;20203;-58
2023/10/04 08:10:29;;;;;;;6.40;2.60;;;14.50;99.90;;;;;;5029903;28;20662;-60
2023/10/04 08:12:59;;;;;;;9.40;3.17;;;14.60;99.90;;;;;;5027756;28;20198;-60
2023/10/04 08:15:27;;;;;;;5.93;2.93;;;14.60;99.90;;;;;;5026005;28;20207;-59
2023/10/04 08:17:54;;;;;;;7.30;3.00;;;14.70;99.90;;;;;;5025438;28;20237;-60
2023/10/04 08:20:22;;;;;;;9.27;3.67;;;14.80;99.90;;;;;;5019786;28;20690;-59
2023/10/04 08:22:48;;;;;;;5.53;3.13;;;14.80;99.90;;;;;;5025007;28;20927;-59
2023/10/04 08:25:16;;;;;;;4.30;2.80;;;14.90;99.90;;;;;;5029825;28;20279;-59
2023/10/04 08:27:42;;;;;;;6.87;2.80;;;15.10;99.90;;;;;;5022335;28;20203;-59
2023/10/04 08:30:13;;;;;;;4.67;2.40;;;15.10;99.90;;;;;;5023977;28;20221;-60
2023/10/04 08:32:46;;;;;;;6.67;2.90;;;15.00;99.90;;;;;;5030141;28;20203;-60
2023/10/04 08:35:21;;;;;;;7.53;2.73;;;14.90;99.90;;;;;;5025549;28;20198;-59
2023/10/04 08:37:48;;;;;;;6.33;3.03;;;15.00;99.90;;;;;;5023021;28;20203;-60
2023/10/04 08:40:17;;;;;;;6.00;2.93;;;15.00;99.90;;;;;;5029257;28;20222;-60
2023/10/04 08:42:43;;;;;;;4.13;2.47;;;15.10;99.90;;;;;;5030064;28;20286;-70
2023/10/04 08:45:09;;;;;;;9.50;3.10;;;15.00;99.90;;;;;;5021080;28;20231;-59
2023/10/04 08:47:35;;;;;;;5.10;3.47;;;15.00;99.90;;;;;;5023382;28;20212;-63
2023/10/04 08:50:04;;;;;;;6.13;3.47;;;15.10;99.90;;;;;;5027475;28;20644;-62
2023/10/04 08:52:38;;;;;;;4.57;2.47;;;15.20;99.90;;;;;;5018914;28;20909;-56
2023/10/04 08:55:07;;;;;;;3.00;2.53;;;15.20;99.90;;;;;;5023279;28;20285;-56
2023/10/04 08:57:38;;;;;;;6.70;2.67;;;15.30;99.90;;;;;;5023244;28;20244;-62
2023/10/04 09:00:15;;;;;;;7.20;2.97;;;15.40;99.90;;;;;;5025244;28;20638;-56
2023/10/04 09:02:47;;;;;;;13.93;2.57;;;15.40;99.90;;;;;;5024887;28;20215;-58
2023/10/04 09:05:17;;;;;;;8.43;2.53;;;15.50;99.90;;;;;;5024940;28;20206;-62
2023/10/04 09:07:43;;;;;;;6.07;2.30;;;15.60;99.90;;;;;;5029946;28;20229;-63
2023/10/04 09:10:15;;;;;;;6.33;3.37;;;15.60;99.90;;;;;;5030981;28;20567;-68
2023/10/04 09:12:42;;;;;;;5.97;2.33;;;15.50;99.90;;;;;;5029640;28;20202;-66
2023/10/04 09:15:08;;;;;;;6.97;2.80;;;15.60;99.90;;;;;;5022108;28;20234;-64
2023/10/04 09:17:46;;;;;;;6.27;2.97;;;15.60;99.90;;;;;;5025657;28;20292;-64
2023/10/04 09:20:15;;;;;;;5.43;2.67;;;15.70;99.90;;;;;;5027393;28;20213;-56
2023/10/04 09:22:41;;;;;;;6.83;2.67;;;15.70;99.90;;;;;;5026307;28;20198;-61
2023/10/04 09:25:07;;;;;;;6.40;2.83;;;15.50;99.90;;;;;;5021425;28;20213;-56
2023/10/04 09:27:33;;;;;;;9.17;3.00;;;15.60;99.90;;;;;;5023621;28;20605;-60
2023/10/04 09:29:59;;;;;;;7.33;2.73;;;15.60;99.90;;;;;;5020687;28;20287;-58
2023/10/04 09:32:40;;;;;;;8.30;2.63;;;15.70;99.90;;;;;;5027012;28;20251;-57
2023/10/04 09:35:06;;;;;;;5.93;2.83;;;15.70;99.90;;;;;;5026673;28;20728;-57
2023/10/04 09:37:31;;;;;;;7.10;2.77;;;15.70;99.90;;;;;;5021643;28;20199;-57
2023/10/04 09:40:08;;;;;;;6.17;2.10;;;15.70;99.90;;;;;;5024672;28;20197;-58
2023/10/04 09:42:55;;;;;;;8.23;3.23;;;15.70;99.90;;;;;;5022107;28;20233;-58
2023/10/04 09:45:24;;;;;;;6.70;2.60;;;15.80;99.90;;;;;;5027565;28;20396;-58
2023/10/04 09:47:50;;;;;;;10.03;2.07;;;15.90;99.90;;;;;;5028973;28;20380;-58
2023/10/04 09:50:24;;;;;;;7.90;2.60;;;15.90;99.90;;;;;;5020997;28;20195;-59
2023/10/04 09:52:51;;;;;;;4.83;2.63;;;15.90;99.90;;;;;;5025299;28;20209;-58
2023/10/04 09:55:18;;;;;;;5.70;2.50;;;15.80;99.90;;;;;;5024588;28;20195;-59
2023/10/04 09:57:44;;;;;;;6.47;2.23;;;15.90;99.90;;;;;;5031418;28;20239;-68
2023/10/04 10:00:22;;;;;;;7.30;3.00;;;16.10;99.90;;;;;;5033535;28;20562;-61
2023/10/04 10:02:51;;;;;;;7.40;2.77;;;16.10;99.90;;;;;;5029023;28;20191;-59
2023/10/04 10:05:34;;;;;;;6.77;2.50;;;16.00;99.90;;;;;;5027253;28;21008;-59
2023/10/04 10:08:04;;;;;;;4.47;2.30;;;16.00;99.90;;;;;;5030282;28;20205;-56
2023/10/04 10:10:34;;;;;;;7.40;2.47;;;16.10;99.90;;;;;;5028268;28;20248;-60
2023/10/04 10:13:00;;;;;;;8.50;2.73;;;16.00;99.90;;;;;;5029353;28;20261;-59
2023/10/04 10:15:27;;;;;;;7.47;3.13;;;16.00;99.90;;;;;;5027557;28;20195;-59
2023/10/04 10:17:53;;;;;;;3.93;1.97;;;16.10;99.90;;;;;;5025437;28;20885;-59
2023/10/04 10:20:19;;;;;;;8.93;2.43;;;16.20;99.90;;;;;;5025251;28;20734;-58
2023/10/04 10:22:57;;;;;;;3.73;2.30;;;16.10;99.90;;;;;;5028652;28;20201;-70
2023/10/04 10:25:25;;;;;;;5.27;2.23;;;16.10;99.90;;;;;;5033542;28;20601;-67
2023/10/04 10:27:57;;;;;;;3.57;2.20;;;16.10;99.90;;;;;;5028429;28;20206;-70
2023/10/04 10:30:23;;;;;;;4.57;2.97;;;16.00;99.90;;;;;;5026325;28;20187;-61
2023/10/04 10:32:55;;;;;;;5.23;2.47;;;15.90;99.90;;;;;;5022506;28;20313;-68
2023/10/04 10:35:46;;;;;;;5.30;2.73;;;15.90;99.90;;;;;;5023492;28;20791;-59
2023/10/04 10:38:43;;;;;;;5.00;2.30;;;15.70;99.90;;;;;;5035253;28;20211;-59
2023/10/04 10:41:32;;;;;;;5.40;2.80;;;15.80;99.90;;;;;;5031589;28;20692;-59
2023/10/04 10:44:33;;;;;;;5.77;3.30;;;15.90;99.90;;;;;;5029851;28;20744;-60
2023/10/04 10:47:06;;;;;;;8.77;3.07;;;16.00;99.90;;;;;;5036580;28;20212;-60
2023/10/04 10:49:40;;;;;;;6.07;2.57;;;16.30;99.90;;;;;;5036626;28;20195;-60
2023/10/04 10:52:10;;;;;;;4.10;2.07;;;16.30;99.90;;;;;;5029985;28;20648;-60
2023/10/04 10:54:36;;;;;;;7.17;2.53;;;16.40;99.90;;;;;;5035182;28;20462;-60
2023/10/04 10:57:05;;;;;;;5.33;2.33;;;16.50;99.90;;;;;;5036338;28;20201;-60
2023/10/04 10:59:34;;;;;;;6.53;2.53;;;16.70;99.90;;;;;;5027672;28;20673;-56
2023/10/04 11:02:00;;;;;;;5.57;1.77;;;16.90;99.90;;;;;;5027942;28;20678;-60
2023/10/04 11:04:25;;;;;;;8.30;2.80;;;16.70;99.90;;;;;;5024125;28;20215;-61
2023/10/04 11:06:51;;;;;;;3.93;2.40;;;16.70;99.90;;;;;;5030445;28;20210;-63
2023/10/04 11:09:18;;;;;;;4.90;2.47;;;16.70;99.90;;;;;;5029032;28;20197;-60
2023/10/04 11:11:44;;;;;;;2.63;2.40;;;16.70;99.90;;;;;;5029066;28;20453;-61
2023/10/04 11:14:10;;;;;;;4.67;2.10;;;16.50;99.90;;;;;;5033315;28;20689;-59
2023/10/04 11:16:35;;;;;;;7.07;2.47;;;16.40;99.90;;;;;;5030492;28;20306;-59
2023/10/04 11:19:03;;;;;;;5.17;2.27;;;16.50;99.90;;;;;;5030329;28;20194;-59
2023/10/04 11:21:29;;;;;;;4.87;2.60;;;16.30;99.90;;;;;;5029221;28;20204;-60
2023/10/04 11:23:55;;;;;;;7.77;2.53;;;16.30;99.90;;;;;;5029774;28;20202;-59
2023/10/04 11:26:21;;;;;;;5.53;2.43;;;16.30;99.90;;;;;;5031209;28;20191;-59
2023/10/04 11:28:49;;;;;;;6.27;2.07;;;16.70;99.90;;;;;;5029957;28;20358;-59
2023/10/04 11:31:15;;;;;;;7.60;2.33;;;17.00;99.90;;;;;;5034284;28;20266;-59
2023/10/04 11:33:52;;;;;;;7.53;2.90;;;17.30;99.90;;;;;;5027965;28;20303;-56
2023/10/04 11:36:23;;;;;;;8.40;2.67;;;17.40;99.90;;;;;;5027732;28;20192;-58
2023/10/04 11:38:50;;;;;;;8.90;2.67;;;17.70;99.90;;;;;;5030604;28;20202;-59
2023/10/04 11:41:16;;;;;;;9.00;3.20;;;18.00;99.90;;;;;;5029435;28;20234;-59
2023/10/04 11:43:44;;;;;;;4.80;2.10;;;17.90;99.90;;;;;;5027968;28;20910;-60
2023/10/04 11:46:10;;;;;;;5.03;2.60;;;17.40;99.90;;;;;;5034706;28;20693;-59
2023/10/04 11:48:36;;;;;;;10.13;2.97;;;17.20;99.90;;;;;;5027156;28;20200;-56
2023/10/04 11:51:04;;;;;;;6.17;2.87;;;17.30;99.90;;;;;;5031182;28;20288;-56
2023/10/04 11:53:45;;;;;;;4.73;2.47;;;16.90;99.90;;;;;;5031906;28;20316;-62
2023/10/04 11:56:11;;;;;;;6.10;2.40;;;17.00;99.90;;;;;;5032499;28;20385;-60
2023/10/04 11:58:50;;;;;;;5.17;3.17;;;16.80;99.90;;;;;;5029275;28;20671;-57
2023/10/04 12:01:22;;;;;;;6.13;2.77;;;16.60;99.90;;;;;;5032355;28;20207;-58
2023/10/04 12:03:49;;;;;;;8.73;2.67;;;16.40;99.90;;;;;;5034031;28;20200;-58
2023/10/04 12:06:25;;;;;;;6.37;2.83;;;16.20;99.90;;;;;;5032865;28;20198;-58
2023/10/04 12:08:53;;;;;;;6.03;2.57;;;16.10;99.90;;;;;;5030798;28;20199;-58
2023/10/04 12:11:22;;;;;;;5.00;3.27;;;16.00;99.90;;;;;;5033349;28;20196;-58
2023/10/04 12:13:49;;;;;;;9.93;3.50;;;16.00;99.90;;;;;;5029968;28;20297;-58
2023/10/04 12:16:15;;;;;;;5.17;2.77;;;15.70;99.90;;;;;;5037704;28;20203;-57
2023/10/04 12:18:42;;;;;;;9.07;3.33;;;15.70;99.90;;;;;;5023109;28;20291;-57
2023/10/04 12:21:08;;;;;;;9.07;3.13;;;15.80;99.90;;;;;;5027558;28;20956;-56
2023/10/04 12:23:33;;;;;;;6.27;2.60;;;15.80;99.90;;;;;;5031194;28;20286;-58
2023/10/04 12:25:59;;;;;;;7.27;2.90;;;15.90;99.90;;;;;;5030263;28;20253;-57
2023/10/04 12:28:29;;;;;;;5.17;3.10;;;16.10;99.90;;;;;;5031410;28;20221;-57
2023/10/04 12:30:55;;;;;;;10.27;3.47;;;16.20;99.90;;;;;;5032606;28;20682;-58
2023/10/04 12:33:20;;;;;;;8.00;2.67;;;16.30;99.90;;;;;;5037124;28;20214;-58
2023/10/04 12:35:47;;;;;;;5.97;3.10;;;16.30;99.90;;;;;;5029591;28;20203;-57
2023/10/04 12:38:13;;;;;;;9.77;3.67;;;16.50;99.90;;;;;;5032844;28;20195;-58
2023/10/04 12:40:39;;;;;;;7.47;3.10;;;15.90;99.90;;;;;;5034598;28;20264;-58
2023/10/04 12:43:04;;;;;;;7.17;3.33;;;15.60;99.90;;;;;;5031493;28;20206;-58
2023/10/04 12:45:30;;;;;;;7.93;3.30;;;15.50;99.90;;;;;;5026255;28;20229;-60
2023/10/04 12:47:56;;;;;;;5.80;3.23;;;15.40;99.90;;;;;;5029156;28;20669;-58
2023/10/04 12:50:24;;;;;;;7.40;3.17;;;15.40;99.90;;;;;;5033230;28;20304;-58